createdAt,value
2023-05-11T00:02:18.761Z,99014.63
2023-05-11T00:04:45.222Z,99012.97
2023-05-11T00:07:11.614Z,99013.22
2023-05-11T00:09:37.922Z,99013.47
2023-05-11T00:12:04.928Z,99010.94
2023-05-11T00:14:31.313Z,99015.84
2023-05-11T00:16:57.679Z,99006.47
2023-05-11T00:19:24.013Z,99017.88
2023-05-11T00:21:50.514Z,99009.38
2023-05-11T00:24:16.876Z,99009.25
2023-05-11T00:26:43.268Z,99017.41
2023-05-11T00:29:09.590Z,99013.94
2023-05-11T00:31:36.025Z,99003.50
2023-05-11T00:34:02.350Z,99004.31
2023-05-11T00:36:28.642Z,99002.41
2023-05-11T00:38:55.026Z,99007.91
2023-05-11T00:41:21.403Z,99001.94
2023-05-11T00:43:47.774Z,98994.84
2023-05-11T00:46:14.270Z,99002.53
2023-05-11T00:48:40.724Z,99011.31
2023-05-11T00:51:07.685Z,99004.56
2023-05-11T00:53:34.191Z,99006.25
2023-05-11T00:56:01.347Z,99008.78
2023-05-11T00:58:27.821Z,99001.09
2023-05-11T01:00:54.168Z,99009.16
2023-05-11T01:03:20.876Z,99005.06
2023-05-11T01:06:15.745Z,99006.75
2023-05-11T01:08:47.958Z,99003.13
2023-05-11T01:11:33.197Z,99006.50
2023-05-11T01:14:22.980Z,99006.75
2023-05-11T01:16:55.718Z,99008.53
2023-05-11T01:19:55.379Z,99005.75
2023-05-11T01:22:31.111Z,99000.97
2023-05-11T01:25:10.721Z,99005.41
2023-05-11T01:27:47.813Z,99004.47
2023-05-11T01:30:35.913Z,99005.28
2023-05-11T01:33:09.436Z,99004.59
2023-05-11T01:35:39.172Z,99008.06
2023-05-11T01:38:11.025Z,99003.59
2023-05-11T01:40:41.229Z,99009.75
2023-05-11T01:43:12.697Z,99001.09
2023-05-11T01:45:43.393Z,98993.53
2023-05-11T01:48:22.467Z,98998.56
2023-05-11T01:50:50.104Z,99000.84
2023-05-11T01:53:17.999Z,99006.88
2023-05-11T01:55:47.460Z,99012.03
2023-05-11T01:58:16.858Z,98993.63
2023-05-11T02:00:45.134Z,99017.53
2023-05-11T02:03:13.889Z,99007.47
2023-05-11T02:05:42.708Z,99009.88
2023-05-11T02:08:10.341Z,99014.16
2023-05-11T02:10:40.692Z,99008.88
2023-05-11T02:13:08.191Z,99018.50
2023-05-11T02:15:39.578Z,99009.97
2023-05-11T02:18:09.341Z,99015.63
2023-05-11T02:20:36.462Z,99013.22
2023-05-11T02:23:03.533Z,99006.38
2023-05-11T02:25:30.983Z,99019.44
2023-05-11T02:27:57.311Z,98987.91
2023-05-11T02:30:27.227Z,99006.59
2023-05-11T02:32:55.565Z,99005.78
2023-05-11T02:35:29.771Z,99014.41
2023-05-11T02:38:01.485Z,99006.59
2023-05-11T02:40:31.024Z,99012.63
2023-05-11T02:43:01.947Z,99010.94
2023-05-11T02:45:32.629Z,99005.06
2023-05-11T02:48:05.694Z,99003.38
2023-05-11T02:50:38.026Z,99004.31
2023-05-11T02:53:10.374Z,99005.19
2023-05-11T02:55:36.791Z,99001.31
2023-05-11T02:58:03.342Z,99001.09
2023-05-11T03:00:29.866Z,99000.84
2023-05-11T03:02:56.519Z,99003.63
2023-05-11T03:05:23.020Z,98994.94
2023-05-11T03:07:49.408Z,99006.25
2023-05-11T03:10:16.002Z,99000.22
2023-05-11T03:12:43.013Z,99000.97
2023-05-11T03:15:10.752Z,99001.69
2023-05-11T03:17:37.713Z,99006.38
2023-05-11T03:20:04.471Z,98989.09
2023-05-11T03:22:32.088Z,99001.09
2023-05-11T03:24:59.658Z,98995.34
2023-05-11T03:27:27.467Z,99004.69
2023-05-11T03:29:55.607Z,99000.84
2023-05-11T03:32:22.065Z,98997.25
2023-05-11T03:34:48.801Z,98993.78
2023-05-11T03:37:17.862Z,98997.25
2023-05-11T03:39:46.793Z,98997.97
2023-05-11T03:42:14.851Z,98992.69
2023-05-11T03:44:43.877Z,98996.31
2023-05-11T03:47:11.187Z,98985.97
2023-05-11T03:49:38.831Z,98990.41
2023-05-11T03:52:06.420Z,98989.44
2023-05-11T03:54:32.919Z,98995.91
2023-05-11T03:56:59.214Z,98990.75
2023-05-11T03:59:25.755Z,98991.75
2023-05-11T04:01:52.846Z,98993.63
2023-05-11T04:04:28.850Z,98990.75
2023-05-11T04:06:55.560Z,98989.22
2023-05-11T04:09:21.849Z,98985.13
2023-05-11T04:11:48.249Z,98994.16
2023-05-11T04:14:14.637Z,98992.56
2023-05-11T04:16:41.004Z,98995.22
2023-05-11T04:19:07.452Z,98988.25
2023-05-11T04:21:33.908Z,99001.09
2023-05-11T04:24:00.209Z,99001.09
2023-05-11T04:26:26.510Z,98994.97
2023-05-11T04:28:53.045Z,98998.31
2023-05-11T04:31:19.506Z,99010.34
2023-05-11T04:33:46.333Z,99006.75
2023-05-11T04:36:12.984Z,99002.41
2023-05-11T04:38:39.278Z,98998.94
2023-05-11T04:41:06.461Z,99004.94
2023-05-11T04:43:32.993Z,99003.97
2023-05-11T04:45:59.343Z,98999.41
2023-05-11T04:48:26.117Z,98999.28
2023-05-11T04:50:54.304Z,98998.34
2023-05-11T04:53:20.742Z,99003.50
2023-05-11T04:55:47.153Z,99000.75
2023-05-11T04:58:13.662Z,98992.31
2023-05-11T05:00:40.194Z,98998.94
2023-05-11T05:03:07.876Z,99003.25
2023-05-11T05:05:34.241Z,99007.31
2023-05-11T05:08:01.348Z,99009.00
2023-05-11T05:10:27.748Z,99001.19
2023-05-11T05:12:54.413Z,98997.50
2023-05-11T05:15:21.005Z,98999.16
2023-05-11T05:17:47.999Z,99000.72
2023-05-11T05:20:14.447Z,99008.41
2023-05-11T05:22:41.126Z,99004.06
2023-05-11T05:25:08.405Z,99007.44
2023-05-11T05:27:35.149Z,99011.66
2023-05-11T05:30:01.746Z,99005.75
2023-05-11T05:32:28.342Z,99004.31
2023-05-11T05:34:55.361Z,99002.28
2023-05-11T05:37:21.669Z,99016.13
2023-05-11T05:39:48.575Z,99016.44
2023-05-11T05:42:14.958Z,99013.81
2023-05-11T05:44:41.266Z,99013.22
2023-05-11T05:47:08.170Z,99011.28
2023-05-11T05:49:34.488Z,99025.72
2023-05-11T05:52:00.843Z,99027.38
2023-05-11T05:54:27.641Z,99018.13
2023-05-11T05:56:53.954Z,99029.31
2023-05-11T05:59:20.904Z,99026.56
2023-05-11T06:01:47.669Z,99033.03
2023-05-11T06:04:14.957Z,99037.00
2023-05-11T06:06:41.522Z,99021.41
2023-05-11T06:09:09.045Z,99022.00
2023-05-11T06:11:35.444Z,99031.56
2023-05-11T06:14:02.457Z,99027.56
2023-05-11T06:16:30.255Z,99019.44
2023-05-11T06:18:56.730Z,99023.59
2023-05-11T06:21:23.081Z,99020.72
2023-05-11T06:23:49.391Z,99028.72
2023-05-11T06:26:16.040Z,99023.56
2023-05-11T06:28:42.598Z,99023.22
2023-05-11T06:31:08.946Z,99017.19
2023-05-11T06:33:36.097Z,99025.63
2023-05-11T06:36:06.888Z,99031.34
2023-05-11T06:38:33.426Z,99038.47
2023-05-11T06:40:59.822Z,99030.41
2023-05-11T06:43:27.267Z,99030.41
2023-05-11T06:45:53.811Z,99027.06
2023-05-11T06:48:20.616Z,99028.22
2023-05-11T06:50:47.092Z,99031.97
2023-05-11T06:53:13.628Z,99021.25
2023-05-11T06:55:40.875Z,99025.78
2023-05-11T06:58:07.229Z,99031.28
2023-05-11T07:00:34.178Z,99028.41
2023-05-11T07:03:04.192Z,99028.22
2023-05-11T07:05:30.534Z,99032.53
2023-05-11T07:07:58.843Z,99034.50
2023-05-11T07:10:25.235Z,99025.94
2023-05-11T07:12:51.684Z,99024.72
2023-05-11T07:15:18.453Z,99027.75
2023-05-11T07:17:44.835Z,99028.03
2023-05-11T07:20:12.617Z,99023.69
2023-05-11T07:22:39.522Z,99027.03
2023-05-11T07:25:06.771Z,99019.09
2023-05-11T07:27:33.221Z,99030.75
2023-05-11T07:29:59.607Z,99018.69
2023-05-11T07:32:26.237Z,99020.03
2023-05-11T07:34:52.585Z,99012.47
2023-05-11T07:37:18.956Z,99028.78
2023-05-11T07:39:46.884Z,99015.56
2023-05-11T07:42:13.234Z,99020.03
2023-05-11T07:44:39.906Z,99025.91
2023-05-11T07:47:06.269Z,99024.78
2023-05-11T07:49:42.951Z,99019.22
2023-05-11T07:52:10.468Z,99033.75
2023-05-11T07:54:37.171Z,99020.44
2023-05-11T07:57:07.526Z,99025.31
2023-05-11T07:59:34.228Z,99014.53
2023-05-11T08:02:00.835Z,99026.75
2023-05-11T08:04:27.855Z,99028.34
2023-05-11T08:06:54.268Z,99026.09
2023-05-11T08:09:21.094Z,99011.81
2023-05-11T08:11:47.640Z,99012.94
2023-05-11T08:14:14.074Z,99006.78
2023-05-11T08:16:40.689Z,99005.84
2023-05-11T08:19:07.275Z,99018.81
2023-05-11T08:21:33.993Z,99035.00
2023-05-11T08:24:00.314Z,99011.56
2023-05-11T08:26:26.961Z,99020.25
2023-05-11T08:28:53.314Z,99018.06
2023-05-11T08:31:20.294Z,99027.13
2023-05-11T08:33:46.830Z,99021.81
2023-05-11T08:36:14.058Z,99028.69
2023-05-11T08:38:40.450Z,99006.22
2023-05-11T08:41:07.516Z,99009.44
2023-05-11T08:43:38.934Z,99009.56
2023-05-11T08:46:07.931Z,99019.88
2023-05-11T08:48:35.210Z,99014.72
2023-05-11T08:51:02.165Z,99027.00
2023-05-11T08:53:28.889Z,99023.94
2023-05-11T08:55:58.535Z,99017.09
2023-05-11T08:58:26.382Z,99023.25
2023-05-11T09:00:54.211Z,99001.56
2023-05-11T09:03:21.407Z,99002.72
2023-05-11T09:05:49.587Z,99016.97
2023-05-11T09:08:19.720Z,99016.69
2023-05-11T09:10:46.402Z,99011.25
2023-05-11T09:13:13.220Z,99010.56
2023-05-11T09:15:39.940Z,98991.97
2023-05-11T09:18:06.390Z,98999.94
2023-05-11T09:20:34.554Z,98990.88
2023-05-11T09:23:01.959Z,99014.72
2023-05-11T09:25:31.827Z,99015.16
2023-05-11T09:28:00.258Z,99000.63
2023-05-11T09:30:27.852Z,99012.66
2023-05-11T09:32:56.819Z,99016.41
2023-05-11T09:35:25.498Z,99021.03
2023-05-11T09:38:12.325Z,99010.56
2023-05-11T09:40:43.194Z,99019.34
2023-05-11T09:43:20.280Z,99015.16
2023-05-11T09:45:48.835Z,99018.06
2023-05-11T09:48:21.305Z,99013.75
2023-05-11T09:50:49.095Z,99006.34
2023-05-11T09:53:16.192Z,99012.44
2023-05-11T09:55:53.974Z,99013.38
2023-05-11T09:58:20.931Z,99018.56
2023-05-11T10:00:51.441Z,99016.16
2023-05-11T10:03:18.332Z,99018.69
2023-05-11T10:06:00.111Z,99024.41
2023-05-11T10:08:31.033Z,99019.09
2023-05-11T10:10:57.848Z,99015.44
2023-05-11T10:13:24.759Z,99020.72
2023-05-11T10:15:52.444Z,99025.22
2023-05-11T10:18:20.362Z,99009.13
2023-05-11T10:20:48.653Z,99013.72
2023-05-11T10:23:16.357Z,99007.06
2023-05-11T10:25:43.968Z,99012.66
2023-05-11T10:28:12.532Z,99003.72
2023-05-11T10:30:40.750Z,98997.63
2023-05-11T10:33:08.107Z,98995.03
2023-05-11T10:35:38.112Z,98986.94
2023-05-11T10:38:05.376Z,98989.03
2023-05-11T10:40:36.755Z,98985.03
2023-05-11T10:43:06.007Z,98994.00
2023-05-11T10:45:51.885Z,98976.66
2023-05-11T10:48:18.482Z,98993.69
2023-05-11T10:51:00.654Z,98993.44
2023-05-11T10:53:45.711Z,98987.19
2023-05-11T10:56:43.325Z,98978.66
2023-05-11T10:59:28.161Z,98984.75
2023-05-11T11:01:54.928Z,98987.84
2023-05-11T11:04:21.444Z,98979.06
2023-05-11T11:07:04.328Z,98979.34
2023-05-11T11:09:50.348Z,98981.97
2023-05-11T11:12:16.968Z,98982.34
2023-05-11T11:15:00.731Z,98989.53
2023-05-11T11:17:29.584Z,98979.88
2023-05-11T11:19:55.972Z,98978.41
2023-05-11T11:22:44.788Z,98984.59
2023-05-11T11:25:12.887Z,98981.09
2023-05-11T11:27:45.329Z,98980.19
2023-05-11T11:30:23.524Z,98980.63
2023-05-11T11:32:52.526Z,98979.06
2023-05-11T11:35:41.079Z,98986.53
2023-05-11T11:38:12.433Z,98982.34
2023-05-11T11:40:50.522Z,98979.44
2023-05-11T11:43:20.438Z,98976.78
2023-05-11T11:45:57.458Z,98976.78
2023-05-11T11:48:31.174Z,98970.97
2023-05-11T11:51:32.845Z,98990.13
2023-05-11T11:54:00.735Z,98986.53
2023-05-11T11:56:30.634Z,98991.69
2023-05-11T11:59:00.903Z,99000.47
2023-05-11T12:01:30.523Z,98993.50
2023-05-11T12:04:31.967Z,98998.75
2023-05-11T12:06:59.161Z,98991.03
2023-05-11T12:09:26.573Z,98993.84
2023-05-11T12:11:53.223Z,98986.28
2023-05-11T12:14:20.748Z,98979.69
2023-05-11T12:17:03.817Z,98994.50
2023-05-11T12:19:30.402Z,98992.94
2023-05-11T12:21:56.936Z,98993.94
2023-05-11T12:24:26.268Z,98995.88
2023-05-11T12:26:56.101Z,98984.59
2023-05-11T12:29:22.486Z,98995.19
2023-05-11T12:31:49.937Z,98985.13
2023-05-11T12:34:23.038Z,98989.66
2023-05-11T12:36:51.203Z,98990.09
2023-05-11T12:39:25.631Z,98980.84
2023-05-11T12:41:54.364Z,98974.19
2023-05-11T12:44:23.282Z,98990.94
2023-05-11T12:46:50.240Z,98977.50
2023-05-11T12:49:24.790Z,98982.41
2023-05-11T12:52:02.582Z,98977.38
2023-05-11T12:54:39.619Z,98982.28
2023-05-11T12:57:22.950Z,98970.06
2023-05-11T12:59:49.288Z,98962.66
2023-05-11T13:02:20.458Z,98966.97
2023-05-11T13:04:48.776Z,98966.25
2023-05-11T13:07:24.466Z,98972.41
2023-05-11T13:10:03.431Z,98972.53
2023-05-11T13:12:32.226Z,98963.47
2023-05-11T13:15:12.157Z,98968.63
2023-05-11T13:17:40.576Z,98972.84
2023-05-11T13:20:27.007Z,98965.16
2023-05-11T13:23:13.771Z,98959.84
2023-05-11T13:25:47.154Z,98964.31
2023-05-11T13:28:15.329Z,98960.69
2023-05-11T13:30:42.342Z,98951.63
2023-05-11T13:33:09.023Z,98952.72
2023-05-11T13:35:39.284Z,98945.19
2023-05-11T13:38:05.764Z,98951.63
2023-05-11T13:40:32.237Z,98953.16
2023-05-11T13:42:58.889Z,98963.16
2023-05-11T13:45:25.268Z,98963.16
2023-05-11T13:47:51.992Z,98960.50
2023-05-11T13:50:18.313Z,98956.72
2023-05-11T13:52:44.697Z,98951.13
2023-05-11T13:55:11.686Z,98947.75
2023-05-11T13:57:38.104Z,98954.19
2023-05-11T14:00:05.675Z,98958.78
2023-05-11T14:02:32.657Z,98953.63
2023-05-11T14:04:58.998Z,98955.28
2023-05-11T14:07:35.613Z,98948.59
2023-05-11T14:10:09.681Z,98957.81
2023-05-11T14:12:36.321Z,98944.16
2023-05-11T14:15:02.746Z,98957.00
2023-05-11T14:17:30.340Z,98948.91
2023-05-11T14:19:58.539Z,98947.91
2023-05-11T14:22:24.871Z,98949.44
2023-05-11T14:24:51.656Z,98955.47
2023-05-11T14:27:18.044Z,98953.66
2023-05-11T14:29:44.679Z,98952.97
2023-05-11T14:32:11.436Z,98948.50
2023-05-11T14:34:37.745Z,98949.19
2023-05-11T14:37:05.394Z,98966.63
2023-05-11T14:39:31.697Z,98953.38
2023-05-11T14:41:58.007Z,98954.66
2023-05-11T14:44:25.565Z,98961.81
2023-05-11T14:46:52.061Z,98946.63
2023-05-11T14:49:18.586Z,98937.13
2023-05-11T14:51:44.891Z,98944.50
2023-05-11T14:54:11.194Z,98947.25
2023-05-11T14:56:38.829Z,98940.97
2023-05-11T14:59:05.202Z,98945.91
2023-05-11T15:01:31.533Z,98940.56
2023-05-11T15:03:58.002Z,98947.38
2023-05-11T15:06:24.365Z,98950.91
2023-05-11T15:08:51.410Z,98944.94
2023-05-11T15:11:18.324Z,98955.09
2023-05-11T15:13:44.695Z,98951.88
2023-05-11T15:16:11.150Z,98947.72
2023-05-11T15:18:37.646Z,98953.16
2023-05-11T15:21:04.158Z,98956.78
2023-05-11T15:23:30.455Z,98963.63
2023-05-11T15:25:56.758Z,98964.72
2023-05-11T15:28:23.427Z,98975.59
2023-05-11T15:30:50.160Z,98978.09
2023-05-11T15:33:17.054Z,98979.41
2023-05-11T15:35:43.555Z,98975.78
2023-05-11T15:38:09.975Z,98965.88
2023-05-11T15:40:36.342Z,98967.13
2023-05-11T15:43:02.846Z,98961.56
2023-05-11T15:45:29.204Z,98954.41
2023-05-11T15:47:55.802Z,98951.22
2023-05-11T15:50:22.573Z,98950.78
2023-05-11T15:52:49.125Z,98948.41
2023-05-11T15:55:15.567Z,98950.38
2023-05-11T15:57:42.214Z,98935.88
2023-05-11T16:00:10.790Z,98948.56
2023-05-11T16:02:37.200Z,98937.81
2023-05-11T16:05:03.886Z,98945.06
2023-05-11T16:07:30.198Z,98948.84
2023-05-11T16:09:56.578Z,98948.41
2023-05-11T16:12:22.879Z,98954.56
2023-05-11T16:14:49.397Z,98953.28
2023-05-11T16:17:15.942Z,98951.38
2023-05-11T16:19:43.038Z,98954.97
2023-05-11T16:22:09.336Z,98957.63
2023-05-11T16:24:35.719Z,98954.81
2023-05-11T16:27:02.023Z,98948.16
2023-05-11T16:29:28.687Z,98944.78
2023-05-11T16:31:55.245Z,98951.22
2023-05-11T16:34:21.758Z,98941.03
2023-05-11T16:36:48.117Z,98947.44
2023-05-11T16:39:14.496Z,98955.97
2023-05-11T16:41:40.890Z,98948.84
2023-05-11T16:44:07.201Z,98941.97
2023-05-11T16:46:33.550Z,98945.34
2023-05-11T16:49:00.127Z,98944.06
2023-05-11T16:51:26.499Z,98948.84
2023-05-11T16:53:52.876Z,98944.91
2023-05-11T16:56:19.167Z,98953.31
2023-05-11T16:58:45.716Z,98944.91
2023-05-11T17:01:12.383Z,98948.72
2023-05-11T17:03:38.911Z,98948.44
2023-05-11T17:06:05.768Z,98959.88
2023-05-11T17:08:32.082Z,98960.16
2023-05-11T17:10:58.563Z,98950.63
2023-05-11T17:13:24.941Z,98961.13
2023-05-11T17:15:51.376Z,98957.75
2023-05-11T17:18:17.858Z,98973.13
2023-05-11T17:20:44.156Z,98968.47
2023-05-11T17:23:10.663Z,98961.19
2023-05-11T17:25:36.963Z,98973.34
2023-05-11T17:28:03.266Z,98969.28
2023-05-11T17:30:36.322Z,98969.56
2023-05-11T17:33:13.688Z,98958.13
2023-05-11T17:35:40.096Z,98966.09
2023-05-11T17:38:06.644Z,98971.72
2023-05-11T17:40:33.033Z,98976.69
2023-05-11T17:42:59.329Z,98968.47
2023-05-11T17:45:25.790Z,98976.56
2023-05-11T17:47:52.253Z,98985.47
2023-05-11T17:50:18.738Z,98991.34
2023-05-11T17:52:45.053Z,98991.50
2023-05-11T17:55:11.586Z,98990.34
2023-05-11T17:57:38.209Z,98997.91
2023-05-11T18:00:05.541Z,98986.69
2023-05-11T18:02:32.078Z,98992.44
2023-05-11T18:05:00.650Z,99000.69
2023-05-11T18:07:27.084Z,99001.22
2023-05-11T18:09:53.663Z,99000.81
2023-05-11T18:12:20.192Z,99003.06
2023-05-11T18:14:46.548Z,99006.38
2023-05-11T18:17:12.936Z,99012.38
2023-05-11T18:19:39.284Z,99010.13
2023-05-11T18:22:05.943Z,99014.88
2023-05-11T18:24:32.340Z,99015.41
2023-05-11T18:26:58.665Z,99027.81
2023-05-11T18:29:25.874Z,99035.75
2023-05-11T18:31:52.249Z,99033.38
2023-05-11T18:34:19.715Z,99047.22
2023-05-11T18:36:46.012Z,99034.19
2023-05-11T18:39:12.366Z,99042.75
2023-05-11T18:41:38.763Z,99051.78
2023-05-11T18:44:05.225Z,99040.91
2023-05-11T18:46:31.668Z,99054.00
2023-05-11T18:48:58.075Z,99048.25
2023-05-11T18:51:24.483Z,99052.59
2023-05-11T18:53:50.797Z,99062.09
2023-05-11T18:56:17.282Z,99060.66
2023-05-11T18:58:45.039Z,99064.75
2023-05-11T19:01:11.424Z,99068.63
2023-05-11T19:03:38.048Z,99063.84
2023-05-11T19:06:04.982Z,99063.16
2023-05-11T19:08:31.274Z,99061.47
2023-05-11T19:10:57.685Z,99063.00
2023-05-11T19:13:24.126Z,99078.91
2023-05-11T19:15:51.216Z,99076.31
2023-05-11T19:18:17.742Z,99081.22
2023-05-11T19:20:44.213Z,99079.22
2023-05-11T19:23:10.545Z,99098.09
2023-05-11T19:25:36.957Z,99095.97
2023-05-11T19:28:03.752Z,99102.94
2023-05-11T19:30:30.671Z,99110.19
2023-05-11T19:32:57.043Z,99118.69
2023-05-11T19:35:23.630Z,99117.31
2023-05-11T19:37:50.025Z,99111.91
2023-05-11T19:40:42.971Z,99114.81
2023-05-11T19:43:03.734Z,99121.81
2023-05-11T19:45:30.079Z,99129.88
2023-05-11T19:47:56.497Z,99124.84
2023-05-11T19:50:24.670Z,99120.75
2023-05-11T19:52:52.399Z,99130.91
2023-05-11T19:55:18.752Z,99126.69
2023-05-11T19:57:45.423Z,99140.44
2023-05-11T20:00:12.335Z,99140.94
2023-05-11T20:02:38.737Z,99143.94
2023-05-11T20:05:05.519Z,99155.03
2023-05-11T20:07:31.823Z,99152.53
2023-05-11T20:09:58.587Z,99150.88
2023-05-11T20:12:25.017Z,99157.00
2023-05-11T20:14:51.629Z,99166.88
2023-05-11T20:17:18.167Z,99147.78
2023-05-11T20:19:44.492Z,99169.19
2023-05-11T20:22:10.970Z,99160.19
2023-05-11T20:24:37.284Z,99165.84
2023-05-11T20:27:03.953Z,99159.38
2023-05-11T20:29:30.336Z,99175.59
2023-05-11T20:31:56.655Z,99168.13
2023-05-11T20:34:23.122Z,99170.91
2023-05-11T20:36:49.484Z,99173.53
2023-05-11T20:39:15.886Z,99166.09
2023-05-11T20:41:42.186Z,99169.22
2023-05-11T20:44:08.722Z,99173.78
2023-05-11T20:46:35.153Z,99168.63
2023-05-11T20:49:01.558Z,99167.19
2023-05-11T20:51:27.895Z,99168.13
2023-05-11T20:53:54.190Z,99168.63
2023-05-11T20:56:20.586Z,99170.56
2023-05-11T20:58:46.884Z,99172.69
2023-05-11T21:01:13.280Z,99167.53
2023-05-11T21:03:39.642Z,99164.06
2023-05-11T21:06:06.253Z,99171.75
2023-05-11T21:08:32.544Z,99180.25
2023-05-11T21:10:59.033Z,99176.28
2023-05-11T21:13:25.325Z,99189.06
2023-05-11T21:15:51.618Z,99186.66
2023-05-11T21:18:18.368Z,99191.22
2023-05-11T21:20:44.718Z,99195.75
2023-05-11T21:23:11.038Z,99202.47
2023-05-11T21:25:37.423Z,99206.88
2023-05-11T21:28:03.745Z,99200.72
2023-05-11T21:30:30.168Z,99193.13
2023-05-11T21:32:56.623Z,99209.72
2023-05-11T21:35:23.774Z,99236.91
2023-05-11T21:37:50.232Z,99245.78
2023-05-11T21:40:17.249Z,99242.56
2023-05-11T21:42:43.916Z,99230.06
2023-05-11T21:45:10.638Z,99223.59
2023-05-11T21:47:36.978Z,99225.03
2023-05-11T21:50:03.681Z,99239.56
2023-05-11T21:52:30.002Z,99241.63
2023-05-11T21:54:56.386Z,99241.50
2023-05-11T21:57:22.696Z,99243.28
2023-05-11T21:59:51.045Z,99232.00
2023-05-11T22:02:17.895Z,99237.06
2023-05-11T22:04:44.237Z,99234.41
2023-05-11T22:07:10.658Z,99235.34
2023-05-11T22:09:37.028Z,99220.50
2023-05-11T22:12:03.515Z,99244.03
2023-05-11T22:14:29.905Z,99229.25
2023-05-11T22:16:56.226Z,99224.78
2023-05-11T22:19:22.767Z,99224.56
2023-05-11T22:21:49.600Z,99223.38
2023-05-11T22:24:15.894Z,99208.72
2023-05-11T22:26:42.301Z,99210.16
2023-05-11T22:29:08.590Z,99213.03
2023-05-11T22:31:34.930Z,99217.44
2023-05-11T22:34:01.347Z,99212.44
2023-05-11T22:36:27.652Z,99211.44
2023-05-11T22:38:53.942Z,99210.00
2023-05-11T22:41:20.324Z,99198.66
2023-05-11T22:43:46.710Z,99218.25
2023-05-11T22:46:13.300Z,99218.47
2023-05-11T22:48:39.725Z,99233.97
2023-05-11T22:51:06.014Z,99212.59
2023-05-11T22:53:32.800Z,99227.97
2023-05-11T22:56:06.786Z,99245.41
2023-05-11T22:58:33.391Z,99250.44
2023-05-11T23:01:00.028Z,99247.06
2023-05-11T23:03:27.277Z,99255.19
2023-05-11T23:05:54.160Z,99253.31
2023-05-11T23:08:20.453Z,99257.97
2023-05-11T23:10:46.864Z,99256.50
2023-05-11T23:13:13.230Z,99257.25
2023-05-11T23:15:39.880Z,99256.59
2023-05-11T23:18:06.343Z,99242.19
2023-05-11T23:20:33.176Z,99267.50
2023-05-11T23:22:59.588Z,99253.34
2023-05-11T23:25:25.902Z,99254.63
2023-05-11T23:27:52.633Z,99229.47
2023-05-11T23:30:19.126Z,99260.13
2023-05-11T23:32:45.720Z,99250.34
2023-05-11T23:35:12.029Z,99243.47
2023-05-11T23:37:38.832Z,99252.34
2023-05-11T23:40:06.625Z,99260.03
2023-05-11T23:42:32.952Z,99251.50
2023-05-11T23:44:59.345Z,99255.72
2023-05-11T23:47:25.870Z,99247.06
2023-05-11T23:49:52.321Z,99236.00
2023-05-11T23:52:18.620Z,99250.66
2023-05-11T23:54:44.999Z,99243.25
2023-05-11T23:57:11.292Z,99246.84
2023-05-11T23:59:37.784Z,99245.88
